Portada
METAR-TAF:

METAR-TAF

Aeropuertos :

Cazaux, Francia

latitud: 44-32N, longitud: 001-08W, altitud: 25 m

Observación

El informe se hizo hace 39 minutos, a las 17:00 UTC
Viento 9 kt del norte-noroeste, variando entre oeste-noroeste y norte-noreste
Temperatura 19°C
Humedad 60%
Presión 1027 hPa
Visibilidad 10 km o más
Cielo cubierto a una altura de 4000 ft

METAR: LFBC 261700Z AUTO 34009KT 300V020 9999 OVC040 19/11 Q1027

Hora: 19:39 (17:39 UTC)

Pronóstico

El informe se hizo hace 27 horas y 39 minutos, a las 14:00 UTC
Pronóstico válido del 25 a las 15 UTC al 26 a las 15 UTC
Viento 12 kt del noroeste
Visibilidad 10 km o más
Cielo nuboso a una altura de 3500 ft
Probabilidad 30% :
Temporalmente
del 26 a las 00 UTC al 26 a las 08 UTC
Cielo nuboso a una altura de 1400 ft

TAF: LFBC 251400Z 2515/2615 31012KT 9999 BKN035 PROB30 TEMPO 2600/2608 BKN014

Observaciones y pronósticos meteorológicos de más de 4000 aeropuertos (mensajes METAR y TAF).

Los puntos amarillos y rojos representan las estaciones disponibles.

Ponga el ratón en el punto deseado para ver el nombre de la estación.

Haga clic para ver las observaciones y los pronósticos meteorológicos.

Para cambiar el mapa : haga clic en los botones verdes con una cruz de color negro para hacer un zoom, en el botón verde con un guión para alejar o en las flechas verdes para mapas adyacentes.


METAR-TAF: